sensor_id;sensor_type;location;lat;lon;timestamp;pressure;altitude;pressure_sealevel;temperature;humidity
20228;BME280;12195;55.790;37.572;2022-12-29T00:02:07;99530.85;;;1.80;77.35
20228;BME280;12195;55.790;37.572;2022-12-29T00:04:40;99541.36;;;1.74;77.86
20228;BME280;12195;55.790;37.572;2022-12-29T00:07:12;99547.30;;;1.78;77.60
20228;BME280;12195;55.790;37.572;2022-12-29T00:09:44;99546.53;;;1.74;77.70
20228;BME280;12195;55.790;37.572;2022-12-29T00:12:16;99549.09;;;1.76;77.42
20228;BME280;12195;55.790;37.572;2022-12-29T00:14:48;99543.11;;;1.72;77.40
20228;BME280;12195;55.790;37.572;2022-12-29T00:17:37;99544.03;;;1.70;77.42
20228;BME280;12195;55.790;37.572;2022-12-29T00:20:09;99539.69;;;1.72;77.05
20228;BME280;12195;55.790;37.572;2022-12-29T00:22:58;99544.92;;;1.69;77.20
20228;BME280;12195;55.790;37.572;2022-12-29T00:25:48;99545.84;;;1.66;76.86
20228;BME280;12195;55.790;37.572;2022-12-29T00:28:38;99544.18;;;1.64;77.09
20228;BME280;12195;55.790;37.572;2022-12-29T00:31:27;99545.88;;;1.65;76.41
20228;BME280;12195;55.790;37.572;2022-12-29T00:34:17;99549.30;;;1.67;75.62
20228;BME280;12195;55.790;37.572;2022-12-29T00:37:07;99562.41;;;1.58;76.00
20228;BME280;12195;55.790;37.572;2022-12-29T00:39:39;99558.98;;;1.57;75.15
20228;BME280;12195;55.790;37.572;2022-12-29T00:42:28;99557.52;;;1.46;75.59
20228;BME280;12195;55.790;37.572;2022-12-29T00:45:18;99566.88;;;1.50;75.38
20228;BME280;12195;55.790;37.572;2022-12-29T00:47:50;99573.03;;;1.46;74.60
20228;BME280;12195;55.790;37.572;2022-12-29T00:50:23;99566.30;;;1.37;75.29
20228;BME280;12195;55.790;37.572;2022-12-29T00:52:55;99571.53;;;1.34;75.38
20228;BME280;12195;55.790;37.572;2022-12-29T00:55:27;99570.74;;;1.31;75.75
20228;BME280;12195;55.790;37.572;2022-12-29T00:57:59;99569.08;;;1.28;75.63
20228;BME280;12195;55.790;37.572;2022-12-29T01:00:31;99573.38;;;1.28;75.91
20228;BME280;12195;55.790;37.572;2022-12-29T01:03:04;99572.55;;;1.27;75.70
20228;BME280;12195;55.790;37.572;2022-12-29T01:05:38;99571.69;;;1.27;75.65
20228;BME280;12195;55.790;37.572;2022-12-29T01:08:10;99573.33;;;1.31;76.00
20228;BME280;12195;55.790;37.572;2022-12-29T01:10:42;99575.75;;;1.38;75.32
20228;BME280;12195;55.790;37.572;2022-12-29T01:13:14;99571.47;;;1.37;75.35
20228;BME280;12195;55.790;37.572;2022-12-29T01:15:51;99571.47;;;1.37;75.58
20228;BME280;12195;55.790;37.572;2022-12-29T01:18:24;99579.20;;;1.39;75.69
20228;BME280;12195;55.790;37.572;2022-12-29T01:21:01;99581.79;;;1.39;75.78
20228;BME280;12195;55.790;37.572;2022-12-29T01:23:34;99582.70;;;1.36;75.57
20228;BME280;12195;55.790;37.572;2022-12-29T01:26:15;99587.85;;;1.38;75.13
20228;BME280;12195;55.790;37.572;2022-12-29T01:28:47;99579.06;;;1.45;73.49
20228;BME280;12195;55.790;37.572;2022-12-29T01:31:19;99586.07;;;1.40;73.30
20228;BME280;12195;55.790;37.572;2022-12-29T01:33:52;99589.59;;;1.36;72.78
20228;BME280;12195;55.790;37.572;2022-12-29T01:36:24;99598.44;;;1.26;73.38
20228;BME280;12195;55.790;37.572;2022-12-29T01:38:56;99594.77;;;1.36;72.59
20228;BME280;12195;55.790;37.572;2022-12-29T01:41:29;99595.69;;;1.33;71.68
20228;BME280;12195;55.790;37.572;2022-12-29T01:46:55;99601.95;;;1.22;71.68
20228;BME280;12195;55.790;37.572;2022-12-29T01:49:27;99590.59;;;1.29;71.49
20228;BME280;12195;55.790;37.572;2022-12-29T01:52:03;99600.36;;;1.15;71.97
20228;BME280;12195;55.790;37.572;2022-12-29T01:54:38;99602.08;;;1.14;71.87
20228;BME280;12195;55.790;37.572;2022-12-29T01:57:12;99598.00;;;1.03;72.45
20228;BME280;12195;55.790;37.572;2022-12-29T01:59:48;99608.41;;;0.98;73.19
20228;BME280;12195;55.790;37.572;2022-12-29T02:02:20;99593.77;;;0.99;73.00
20228;BME280;12195;55.790;37.572;2022-12-29T02:04:53;99597.19;;;1.01;72.25
20228;BME280;12195;55.790;37.572;2022-12-29T02:07:28;99593.89;;;0.93;72.24
20228;BME280;12195;55.790;37.572;2022-12-29T02:10:02;99597.48;;;0.84;72.81
20228;BME280;12195;55.790;37.572;2022-12-29T02:12:34;99600.11;;;0.81;73.16
20228;BME280;12195;55.790;37.572;2022-12-29T02:15:06;99608.46;;;0.97;72.70
20228;BME280;12195;55.790;37.572;2022-12-29T02:18:01;99600.23;;;0.75;72.75
20228;BME280;12195;55.790;37.572;2022-12-29T02:35:06;99608.32;;;0.56;73.78
20228;BME280;12195;55.790;37.572;2022-12-29T02:38:09;99608.16;;;0.65;73.26
20228;BME280;12195;55.790;37.572;2022-12-29T02:40:45;99612.75;;;0.48;73.80
20228;BME280;12195;55.790;37.572;2022-12-29T02:46:00;99611.16;;;0.39;74.04
20228;BME280;12195;55.790;37.572;2022-12-29T02:48:46;99623.86;;;0.53;73.12
20228;BME280;12195;55.790;37.572;2022-12-29T02:51:24;99632.67;;;0.40;73.45
20228;BME280;12195;55.790;37.572;2022-12-29T02:53:57;99634.19;;;0.53;72.97
20228;BME280;12195;55.790;37.572;2022-12-29T02:56:48;99636.18;;;0.36;73.77
20228;BME280;12195;55.790;37.572;2022-12-29T02:59:22;99648.17;;;0.40;73.53
20228;BME280;12195;55.790;37.572;2022-12-29T03:05:15;99632.72;;;0.37;73.97
20228;BME280;12195;55.790;37.572;2022-12-29T03:10:40;99626.70;;;0.35;73.92
20228;BME280;12195;55.790;37.572;2022-12-29T03:13:13;99637.03;;;0.35;73.91
20228;BME280;12195;55.790;37.572;2022-12-29T03:16:07;99637.02;;;0.36;73.19
20228;BME280;12195;55.790;37.572;2022-12-29T03:19:14;99638.84;;;0.30;73.69
20228;BME280;12195;55.790;37.572;2022-12-29T03:21:47;99643.23;;;0.23;74.25
20228;BME280;12195;55.790;37.572;2022-12-29T03:24:38;99643.97;;;0.33;73.41
20228;BME280;12195;55.790;37.572;2022-12-29T03:27:13;99648.24;;;0.34;73.33
20228;BME280;12195;55.790;37.572;2022-12-29T03:29:54;99645.78;;;0.26;73.62
20228;BME280;12195;55.790;37.572;2022-12-29T03:32:37;99654.47;;;0.21;73.87
20228;BME280;12195;55.790;37.572;2022-12-29T03:35:04;99655.28;;;0.23;73.61
20228;BME280;12195;55.790;37.572;2022-12-29T03:37:44;99666.47;;;0.23;74.06
20228;BME280;12195;55.790;37.572;2022-12-29T03:40:17;99665.67;;;0.20;74.14
20228;BME280;12195;55.790;37.572;2022-12-29T03:42:50;99666.57;;;0.17;74.71
20228;BME280;12195;55.790;37.572;2022-12-29T03:45:25;99664.79;;;0.21;75.19
20228;BME280;12195;55.790;37.572;2022-12-29T03:47:57;99669.84;;;0.27;74.55
20228;BME280;12195;55.790;37.572;2022-12-29T03:50:30;99670.73;;;0.26;74.75
20228;BME280;12195;55.790;37.572;2022-12-29T03:53:02;99677.50;;;0.34;74.84
20228;BME280;12195;55.790;37.572;2022-12-29T03:55:34;99674.91;;;0.36;74.83
20228;BME280;12195;55.790;37.572;2022-12-29T03:58:06;99671.41;;;0.40;74.73
20228;BME280;12195;55.790;37.572;2022-12-29T04:00:56;99672.31;;;0.37;73.86
20228;BME280;12195;55.790;37.572;2022-12-29T04:03:29;99675.73;;;0.36;74.10
20228;BME280;12195;55.790;37.572;2022-12-29T04:06:01;99686.93;;;0.37;74.04
20228;BME280;12195;55.790;37.572;2022-12-29T04:08:35;99674.84;;;0.39;73.06
20228;BME280;12195;55.790;37.572;2022-12-29T04:11:08;99691.21;;;0.38;73.73
20228;BME280;12195;55.790;37.572;2022-12-29T04:13:41;99680.98;;;0.32;73.55
20228;BME280;12195;55.790;37.572;2022-12-29T04:16:15;99684.48;;;0.28;73.99
20228;BME280;12195;55.790;37.572;2022-12-29T04:18:48;99687.84;;;0.33;73.84
20228;BME280;12195;55.790;37.572;2022-12-29T04:21:20;99689.55;;;0.34;73.94
20228;BME280;12195;55.790;37.572;2022-12-29T04:23:52;99687.00;;;0.31;74.65
20228;BME280;12195;55.790;37.572;2022-12-29T04:26:24;99686.95;;;0.35;74.12
20228;BME280;12195;55.790;37.572;2022-12-29T04:28:58;99686.95;;;0.35;74.32
20228;BME280;12195;55.790;37.572;2022-12-29T04:31:44;99692.08;;;0.38;74.28
20228;BME280;12195;55.790;37.572;2022-12-29T04:34:16;99682.59;;;0.39;73.95
20228;BME280;12195;55.790;37.572;2022-12-29T04:36:50;99698.14;;;0.36;74.22
20228;BME280;12195;55.790;37.572;2022-12-29T04:39:22;99696.37;;;0.38;74.25
20228;BME280;12195;55.790;37.572;2022-12-29T04:41:55;99691.31;;;0.32;74.72
20228;BME280;12195;55.790;37.572;2022-12-29T04:44:28;99694.75;;;0.31;75.04
20228;BME280;12195;55.790;37.572;2022-12-29T04:47:11;99699.79;;;0.41;74.21
20228;BME280;12195;55.790;37.572;2022-12-29T04:49:51;99707.59;;;0.37;74.47
20228;BME280;12195;55.790;37.572;2022-12-29T04:52:25;99704.20;;;0.33;74.64
20228;BME280;12195;55.790;37.572;2022-12-29T04:54:57;99708.50;;;0.33;74.33
20228;BME280;12195;55.790;37.572;2022-12-29T04:57:30;99715.41;;;0.31;74.91
20228;BME280;12195;55.790;37.572;2022-12-29T05:00:05;99712.80;;;0.32;75.36
20228;BME280;12195;55.790;37.572;2022-12-29T05:02:38;99708.45;;;0.37;75.00
20228;BME280;12195;55.790;37.572;2022-12-29T05:05:12;99711.73;;;0.47;73.62
20228;BME280;12195;55.790;37.572;2022-12-29T05:07:47;99701.54;;;0.38;73.85
20228;BME280;12195;55.790;37.572;2022-12-29T05:10:19;99699.98;;;0.28;74.10
20228;BME280;12195;55.790;37.572;2022-12-29T05:12:54;99706.97;;;0.20;74.23
20228;BME280;12195;55.790;37.572;2022-12-29T05:15:26;99712.26;;;0.11;74.25
20228;BME280;12195;55.790;37.572;2022-12-29T05:17:58;99721.95;;;-0.08;74.16
20228;BME280;12195;55.790;37.572;2022-12-29T05:20:32;99721.25;;;-0.24;74.35
20228;BME280;12195;55.790;37.572;2022-12-29T05:23:06;99719.64;;;-0.31;74.48
20228;BME280;12195;55.790;37.572;2022-12-29T05:25:38;99723.15;;;-0.38;74.68
20228;BME280;12195;55.790;37.572;2022-12-29T05:28:12;99731.82;;;-0.46;75.44
20228;BME280;12195;55.790;37.572;2022-12-29T05:30:50;99728.21;;;-0.30;75.16
20228;BME280;12195;55.790;37.572;2022-12-29T05:33:23;99719.77;;;-0.43;75.05
20228;BME280;12195;55.790;37.572;2022-12-29T05:35:55;99724.05;;;-0.42;75.30
20228;BME280;12195;55.790;37.572;2022-12-29T05:38:28;99734.34;;;-0.39;75.66
20228;BME280;12195;55.790;37.572;2022-12-29T05:41:02;99738.55;;;-0.32;75.52
20228;BME280;12195;55.790;37.572;2022-12-29T05:43:52;99750.53;;;-0.28;75.74
20228;BME280;12195;55.790;37.572;2022-12-29T05:46:35;99747.02;;;-0.21;75.05
20228;BME280;12195;55.790;37.572;2022-12-29T05:49:12;99741.77;;;-0.13;74.37
20228;BME280;12195;55.790;37.572;2022-12-29T05:52:04;99747.05;;;-0.24;74.48
20228;BME280;12195;55.790;37.572;2022-12-29T05:54:37;99743.63;;;-0.23;73.23
20228;BME280;12195;55.790;37.572;2022-12-29T05:57:11;99741.97;;;-0.30;73.34
20228;BME280;12195;55.790;37.572;2022-12-29T05:59:44;99752.39;;;-0.39;73.74
20228;BME280;12195;55.790;37.572;2022-12-29T06:02:17;99755.69;;;-0.28;73.61
20228;BME280;12195;55.790;37.572;2022-12-29T06:04:50;99760.15;;;-0.42;73.45
20228;BME280;12195;55.790;37.572;2022-12-29T06:07:22;99754.20;;;-0.48;74.01
20228;BME280;12195;55.790;37.572;2022-12-29T06:09:55;99751.66;;;-0.53;74.49
20228;BME280;12195;55.790;37.572;2022-12-29T06:12:30;99757.70;;;-0.55;75.10
20228;BME280;12195;55.790;37.572;2022-12-29T06:15:03;99750.84;;;-0.56;75.11
20228;BME280;12195;55.790;37.572;2022-12-29T06:17:36;99750.78;;;-0.52;74.87
20228;BME280;12195;55.790;37.572;2022-12-29T06:20:09;99757.69;;;-0.54;74.90
20228;BME280;12195;55.790;37.572;2022-12-29T06:22:41;99756.83;;;-0.54;74.93
20228;BME280;12195;55.790;37.572;2022-12-29T06:25:15;99753.42;;;-0.56;75.17
20228;BME280;12195;55.790;37.572;2022-12-29T06:27:47;99752.52;;;-0.52;75.85
20228;BME280;12195;55.790;37.572;2022-12-29T06:30:19;99754.19;;;-0.47;75.92
20228;BME280;12195;55.790;37.572;2022-12-29T06:32:52;99759.27;;;-0.39;75.53
20228;BME280;12195;55.790;37.572;2022-12-29T06:35:26;99758.36;;;-0.35;75.87
20228;BME280;12195;55.790;37.572;2022-12-29T06:37:59;99759.16;;;-0.30;75.55
20228;BME280;12195;55.790;37.572;2022-12-29T06:40:33;99765.97;;;-0.23;74.67
20228;BME280;12195;55.790;37.572;2022-12-29T06:43:07;99761.63;;;-0.21;74.68
20228;BME280;12195;55.790;37.572;2022-12-29T06:45:43;99758.22;;;-0.22;75.15
20228;BME280;12195;55.790;37.572;2022-12-29T06:48:15;99762.48;;;-0.18;75.65
20228;BME280;12195;55.790;37.572;2022-12-29T06:50:48;99768.42;;;-0.11;75.87
20228;BME280;12195;55.790;37.572;2022-12-29T06:53:20;99767.38;;;0.05;74.80
20228;BME280;12195;55.790;37.572;2022-12-29T06:55:53;99769.05;;;0.09;74.45
20228;BME280;12195;55.790;37.572;2022-12-29T06:58:25;99768.18;;;0.08;74.26
20228;BME280;12195;55.790;37.572;2022-12-29T07:00:58;99762.14;;;0.09;74.00
20228;BME280;12195;55.790;37.572;2022-12-29T07:03:31;99767.30;;;0.09;74.52
20228;BME280;12195;55.790;37.572;2022-12-29T07:06:04;99766.41;;;0.12;74.41
20228;BME280;12195;55.790;37.572;2022-12-29T07:08:37;99770.73;;;0.12;74.78
20228;BME280;12195;55.790;37.572;2022-12-29T07:11:10;99757.80;;;0.15;74.36
20228;BME280;12195;55.790;37.572;2022-12-29T07:13:42;99767.22;;;0.19;74.79
20228;BME280;12195;55.790;37.572;2022-12-29T07:16:15;99763.75;;;0.20;74.49
20228;BME280;12195;55.790;37.572;2022-12-29T07:18:47;99777.55;;;0.19;74.17
20228;BME280;12195;55.790;37.572;2022-12-29T07:21:20;99773.23;;;0.18;74.18
20228;BME280;12195;55.790;37.572;2022-12-29T07:23:54;99770.62;;;0.21;74.31
20228;BME280;12195;55.790;37.572;2022-12-29T07:26:26;99767.13;;;0.25;74.55
20228;BME280;12195;55.790;37.572;2022-12-29T07:29:01;99773.02;;;0.36;74.79
20228;BME280;12195;55.790;37.572;2022-12-29T07:31:34;99772.01;;;0.46;74.56
20228;BME280;12195;55.790;37.572;2022-12-29T07:34:07;99766.80;;;0.50;74.21
20228;BME280;12195;55.790;37.572;2022-12-29T07:36:39;99773.66;;;0.51;73.69
20228;BME280;12195;55.790;37.572;2022-12-29T07:39:12;99777.03;;;0.56;73.38
20228;BME280;12195;55.790;37.572;2022-12-29T07:41:44;99777.89;;;0.57;73.34
20228;BME280;12195;55.790;37.572;2022-12-29T07:44:18;99776.27;;;0.48;73.09
20228;BME280;12195;55.790;37.572;2022-12-29T07:46:57;99778.97;;;0.41;73.43
20228;BME280;12195;55.790;37.572;2022-12-29T07:49:30;99766.07;;;0.39;73.07
20228;BME280;12195;55.790;37.572;2022-12-29T07:52:02;99777.42;;;0.28;73.18
20228;BME280;12195;55.790;37.572;2022-12-29T07:54:34;99784.34;;;0.23;73.13
20228;BME280;12195;55.790;37.572;2022-12-29T07:57:07;99779.18;;;0.23;73.48
20228;BME280;12195;55.790;37.572;2022-12-29T07:59:40;99789.42;;;0.32;73.40
20228;BME280;12195;55.790;37.572;2022-12-29T08:02:12;99787.66;;;0.34;72.36
20228;BME280;12195;55.790;37.572;2022-12-29T08:04:45;99789.45;;;0.29;72.67
20228;BME280;12195;55.790;37.572;2022-12-29T08:07:17;99796.31;;;0.30;72.34
20228;BME280;12195;55.790;37.572;2022-12-29T08:09:49;99794.58;;;0.32;72.33
20228;BME280;12195;55.790;37.572;2022-12-29T08:12:22;99798.86;;;0.33;72.30
20228;BME280;12195;55.790;37.572;2022-12-29T08:14:54;99800.53;;;0.37;73.18
20228;BME280;12195;55.790;37.572;2022-12-29T08:17:27;99803.87;;;0.45;72.81
20228;BME280;12195;55.790;37.572;2022-12-29T08:19:59;99800.25;;;0.58;73.34
20228;BME280;12195;55.790;37.572;2022-12-29T08:22:33;99795.81;;;0.69;72.84
20228;BME280;12195;55.790;37.572;2022-12-29T08:25:06;99799.92;;;0.82;73.16
20228;BME280;12195;55.790;37.572;2022-12-29T08:27:38;99797.98;;;0.96;72.15
20228;BME280;12195;55.790;37.572;2022-12-29T08:30:11;99797.02;;;1.03;71.89
20228;BME280;12195;55.790;37.572;2022-12-29T08:32:43;99805.66;;;1.02;71.26
20228;BME280;12195;55.790;37.572;2022-12-29T08:35:15;99808.08;;;1.12;69.95
20228;BME280;12195;55.790;37.572;2022-12-29T08:37:49;99800.63;;;0.93;70.07
20228;BME280;12195;55.790;37.572;2022-12-29T08:40:22;99810.16;;;0.88;70.73
20228;BME280;12195;55.790;37.572;2022-12-29T08:42:55;99805.91;;;0.84;70.94
20228;BME280;12195;55.790;37.572;2022-12-29T08:45:27;99805.86;;;0.88;71.50
20228;BME280;12195;55.790;37.572;2022-12-29T08:48:00;99798.88;;;0.93;70.90
20228;BME280;12195;55.790;37.572;2022-12-29T08:50:32;99800.58;;;0.94;70.60
20228;BME280;12195;55.790;37.572;2022-12-29T08:53:04;99803.16;;;0.94;70.66
20228;BME280;12195;55.790;37.572;2022-12-29T08:55:37;99799.71;;;0.97;70.50
20228;BME280;12195;55.790;37.572;2022-12-29T08:58:10;99799.62;;;1.01;71.00
20228;BME280;12195;55.790;37.572;2022-12-29T09:00:45;99802.97;;;1.08;70.83
20228;BME280;12195;55.790;37.572;2022-12-29T09:03:17;99802.72;;;1.24;71.13
20228;BME280;12195;55.790;37.572;2022-12-29T09:05:52;99809.48;;;1.31;70.76
20228;BME280;12195;55.790;37.572;2022-12-29T09:08:25;99806.79;;;1.39;70.82
20228;BME280;12195;55.790;37.572;2022-12-29T09:11:08;99804.86;;;1.50;70.86
20228;BME280;12195;55.790;37.572;2022-12-29T09:13:41;99816.94;;;1.51;69.50
20228;BME280;12195;55.790;37.572;2022-12-29T09:16:13;99805.70;;;1.52;69.31
20228;BME280;12195;55.790;37.572;2022-12-29T09:18:46;99810.11;;;1.47;68.08
20228;BME280;12195;55.790;37.572;2022-12-29T09:21:19;99815.45;;;1.36;69.10
20228;BME280;12195;55.790;37.572;2022-12-29T09:23:51;99810.34;;;1.32;69.80
20228;BME280;12195;55.790;37.572;2022-12-29T09:26:23;99807.78;;;1.30;70.07
20228;BME280;12195;55.790;37.572;2022-12-29T09:28:56;99805.97;;;1.35;70.27
20228;BME280;12195;55.790;37.572;2022-12-29T09:31:28;99801.58;;;1.42;70.57
20228;BME280;12195;55.790;37.572;2022-12-29T09:34:01;99799.75;;;1.47;69.97
20228;BME280;12195;55.790;37.572;2022-12-29T09:36:33;99798.84;;;1.49;70.15
20228;BME280;12195;55.790;37.572;2022-12-29T09:39:06;99808.22;;;1.56;70.20
20228;BME280;12195;55.790;37.572;2022-12-29T09:41:48;99798.64;;;1.61;69.84
20228;BME280;12195;55.790;37.572;2022-12-29T09:44:22;99799.38;;;1.68;69.55
20228;BME280;12195;55.790;37.572;2022-12-29T09:46:55;99802.78;;;1.70;69.51
20228;BME280;12195;55.790;37.572;2022-12-29T09:49:43;99806.26;;;1.69;69.16
20228;BME280;12195;55.790;37.572;2022-12-29T09:52:21;99814.02;;;1.69;69.27
20228;BME280;12195;55.790;37.572;2022-12-29T09:55:04;99814.02;;;1.69;68.61
20228;BME280;12195;55.790;37.572;2022-12-29T09:57:48;99809.78;;;1.65;68.07
20228;BME280;12195;55.790;37.572;2022-12-29T10:03:02;99809.90;;;1.59;67.63
20228;BME280;12195;55.790;37.572;2022-12-29T10:08:44;99813.70;;;1.37;69.09
20228;BME280;12195;55.790;37.572;2022-12-29T10:14:38;99804.28;;;1.33;69.74
20228;BME280;12195;55.790;37.572;2022-12-29T10:17:38;99803.45;;;1.32;69.35
20228;BME280;12195;55.790;37.572;2022-12-29T10:25:39;99799.25;;;1.25;69.55
20228;BME280;12195;55.790;37.572;2022-12-29T10:28:21;99804.38;;;1.28;70.00
20228;BME280;12195;55.790;37.572;2022-12-29T10:30:54;99809.48;;;1.31;70.01
20228;BME280;12195;55.790;37.572;2022-12-29T10:33:34;99815.52;;;1.32;69.99
20228;BME280;12195;55.790;37.572;2022-12-29T10:36:16;99808.61;;;1.34;70.50
20228;BME280;12195;55.790;37.572;2022-12-29T10:38:53;99814.56;;;1.37;70.56
20228;BME280;12195;55.790;37.572;2022-12-29T10:41:28;99807.58;;;1.42;70.45
20228;BME280;12195;55.790;37.572;2022-12-29T10:44:01;99800.69;;;1.43;70.15
20228;BME280;12195;55.790;37.572;2022-12-29T10:46:33;99804.11;;;1.43;70.04
20228;BME280;12195;55.790;37.572;2022-12-29T10:49:17;99803.77;;;1.64;70.55
20228;BME280;12195;55.790;37.572;2022-12-29T10:51:49;99804.86;;;1.50;69.96
20228;BME280;12195;55.790;37.572;2022-12-29T10:54:32;99798.83;;;1.51;69.99
20228;BME280;12195;55.790;37.572;2022-12-29T10:57:13;99803.09;;;1.53;70.03
20228;BME280;12195;55.790;37.572;2022-12-29T10:59:44;99796.09;;;1.58;69.66
20228;BME280;12195;55.790;37.572;2022-12-29T11:05:22;99791.59;;;1.69;70.08
20228;BME280;12195;55.790;37.572;2022-12-29T11:07:52;99793.27;;;1.72;70.11
20228;BME280;12195;55.790;37.572;2022-12-29T11:10:37;99786.42;;;1.69;69.37
20228;BME280;12195;55.790;37.572;2022-12-29T11:13:18;99788.14;;;1.69;70.17
20228;BME280;12195;55.790;37.572;2022-12-29T11:15:52;99782.99;;;1.67;70.18
20228;BME280;12195;55.790;37.572;2022-12-29T11:21:32;99784.88;;;1.58;69.45
20228;BME280;12195;55.790;37.572;2022-12-29T11:24:03;99792.77;;;1.52;68.92
20228;BME280;12195;55.790;37.572;2022-12-29T11:26:36;99783.39;;;1.45;69.64
20228;BME280;12195;55.790;37.572;2022-12-29T11:31:57;99788.73;;;1.36;69.32
20228;BME280;12195;55.790;37.572;2022-12-29T11:34:33;99788.77;;;1.33;70.05
20228;BME280;12195;55.790;37.572;2022-12-29T11:37:14;99789.61;;;1.35;70.57
20228;BME280;12195;55.790;37.572;2022-12-29T11:42:41;99779.15;;;1.41;70.44
20228;BME280;12195;55.790;37.572;2022-12-29T11:45:26;99784.28;;;1.44;70.17
20228;BME280;12195;55.790;37.572;2022-12-29T11:48:05;99781.65;;;1.47;70.45
20228;BME280;12195;55.790;37.572;2022-12-29T11:50:37;99788.52;;;1.48;70.30
20228;BME280;12195;55.790;37.572;2022-12-29T11:53:21;99776.50;;;1.45;70.34
20228;BME280;12195;55.790;37.572;2022-12-29T11:56:08;99790.32;;;1.44;70.80
20228;BME280;12195;55.790;37.572;2022-12-29T11:58:31;99794.65;;;1.42;70.60
20228;BME280;12195;55.790;37.572;2022-12-29T12:04:10;99806.75;;;1.42;70.77
20228;BME280;12195;55.790;37.572;2022-12-29T12:06:44;99808.45;;;1.43;70.72
20228;BME280;12195;55.790;37.572;2022-12-29T12:09:31;99806.65;;;1.46;71.01
20228;BME280;12195;55.790;37.572;2022-12-29T12:12:06;99810.03;;;1.50;71.25
20228;BME280;12195;55.790;37.572;2022-12-29T12:14:55;99818.61;;;1.53;71.64
20228;BME280;12195;55.790;37.572;2022-12-29T12:23:10;99815.16;;;1.53;71.00
20228;BME280;12195;55.790;37.572;2022-12-29T12:28:51;99798.73;;;1.55;70.98
20228;BME280;12195;55.790;37.572;2022-12-29T12:34:24;99813.34;;;1.58;71.18
20228;BME280;12195;55.790;37.572;2022-12-29T12:37:08;99809.94;;;1.56;71.70
20228;BME280;12195;55.790;37.572;2022-12-29T12:39:49;99812.59;;;1.51;71.41
20228;BME280;12195;55.790;37.572;2022-12-29T12:48:11;99803.23;;;1.46;71.69
20228;BME280;12195;55.790;37.572;2022-12-29T12:59:17;99801.50;;;1.45;72.02
20228;BME280;12195;55.790;37.572;2022-12-29T13:07:19;99798.08;;;1.44;72.71
20228;BME280;12195;55.790;37.572;2022-12-29T13:16:04;99811.02;;;1.44;73.00
20228;BME280;12195;55.790;37.572;2022-12-29T13:18:40;99803.27;;;1.43;73.31
20228;BME280;12195;55.790;37.572;2022-12-29T13:24:08;99807.62;;;1.39;73.76
20228;BME280;12195;55.790;37.572;2022-12-29T13:26:46;99802.45;;;1.39;73.84
20228;BME280;12195;55.790;37.572;2022-12-29T13:29:40;99808.48;;;1.40;74.15
20228;BME280;12195;55.790;37.572;2022-12-29T13:37:45;99799.92;;;1.38;73.86
20228;BME280;12195;55.790;37.572;2022-12-29T13:40:16;99802.52;;;1.36;74.27
20228;BME280;12195;55.790;37.572;2022-12-29T13:42:51;99806.79;;;1.39;74.42
20228;BME280;12195;55.790;37.572;2022-12-29T13:45:26;99807.62;;;1.39;74.59
20228;BME280;12195;55.790;37.572;2022-12-29T13:50:46;99797.21;;;1.44;74.69
20228;BME280;12195;55.790;37.572;2022-12-29T13:53:24;99797.19;;;1.45;74.95
20228;BME280;12195;55.790;37.572;2022-12-29T13:56:10;99792.89;;;1.46;74.82
20228;BME280;12195;55.790;37.572;2022-12-29T13:59:42;99798.00;;;1.47;75.09
20228;BME280;12195;55.790;37.572;2022-12-29T14:04:21;99795.33;;;1.53;74.82
20228;BME280;12195;55.790;37.572;2022-12-29T14:06:46;99793.52;;;1.58;74.65
20228;BME280;12195;55.790;37.572;2022-12-29T14:18:03;99794.95;;;1.74;74.63
20228;BME280;12195;55.790;37.572;2022-12-29T14:20:36;99793.98;;;1.80;74.45
20228;BME280;12195;55.790;37.572;2022-12-29T14:26:09;99799.12;;;1.83;74.88
20228;BME280;12195;55.790;37.572;2022-12-29T14:28:36;99794.80;;;1.82;74.69
20228;BME280;12195;55.790;37.572;2022-12-29T14:36:59;99798.20;;;1.85;74.31
20228;BME280;12195;55.790;37.572;2022-12-29T14:42:19;99792.14;;;1.86;74.19
20228;BME280;12195;55.790;37.572;2022-12-29T14:47:44;99797.30;;;1.88;73.91
20228;BME280;12195;55.790;37.572;2022-12-29T14:50:21;99795.52;;;1.90;74.07
20228;BME280;12195;55.790;37.572;2022-12-29T14:52:58;99800.67;;;1.91;74.03
20228;BME280;12195;55.790;37.572;2022-12-29T14:55:41;99799.75;;;1.94;74.29
20228;BME280;12195;55.790;37.572;2022-12-29T14:58:32;99795.47;;;1.93;74.13
20228;BME280;12195;55.790;37.572;2022-12-29T15:00:54;99802.34;;;1.94;74.01
20228;BME280;12195;55.790;37.572;2022-12-29T15:03:32;99797.14;;;1.95;74.07
20228;BME280;12195;55.790;37.572;2022-12-29T15:06:09;99794.55;;;1.95;74.14
20228;BME280;12195;55.790;37.572;2022-12-29T15:09:10;99797.11;;;1.97;74.09
20228;BME280;12195;55.790;37.572;2022-12-29T15:11:42;99803.19;;;1.96;74.15
20228;BME280;12195;55.790;37.572;2022-12-29T15:14:35;99804.04;;;1.95;74.26
20228;BME280;12195;55.790;37.572;2022-12-29T15:17:28;99799.73;;;1.95;74.38
20228;BME280;12195;55.790;37.572;2022-12-29T15:19:56;99800.59;;;1.96;74.23
20228;BME280;12195;55.790;37.572;2022-12-29T15:22:30;99805.77;;;1.96;74.36
20228;BME280;12195;55.790;37.572;2022-12-29T15:25:03;99803.19;;;1.96;74.33
20228;BME280;12195;55.790;37.572;2022-12-29T15:27:35;99801.43;;;1.96;74.40
20228;BME280;12195;55.790;37.572;2022-12-29T15:30:12;99800.59;;;1.96;74.54
20228;BME280;12195;55.790;37.572;2022-12-29T15:32:45;99798.84;;;1.96;74.74
20228;BME280;12195;55.790;37.572;2022-12-29T15:35:35;99799.73;;;1.95;74.69
20228;BME280;12195;55.790;37.572;2022-12-29T15:38:19;99799.70;;;1.97;74.65
20228;BME280;12195;55.790;37.572;2022-12-29T15:40:56;99794.48;;;2.00;74.54
20228;BME280;12195;55.790;37.572;2022-12-29T15:46:16;99790.22;;;1.97;74.85
20228;BME280;12195;55.790;37.572;2022-12-29T15:48:49;99791.94;;;1.97;74.86
20228;BME280;12195;55.790;37.572;2022-12-29T15:51:28;99792.80;;;1.97;75.03
20228;BME280;12195;55.790;37.572;2022-12-29T15:53:59;99784.98;;;1.99;75.23
20228;BME280;12195;55.790;37.572;2022-12-29T15:56:32;99791.00;;;2.01;75.08
20228;BME280;12195;55.790;37.572;2022-12-29T15:59:17;99783.26;;;1.99;75.47